Time;durP1;ratioP1;P1;durP2;ratioP2;P2;SDS_P1;SDS_P2;PMS_P1;PMS_P2;Temp;Humidity;BMP_temperature;BMP_pressure;BME280_temperature;BME280_humidity;BME280_pressure;Samples;Min_cycle;Max_cycle;Signal;HPM_P1;HPM_P2
2021/09/26 00:00:20;;;;;;;;;;;;;;;21.97;58.10;101426.41;4986356;28;1605;-43
2021/09/26 00:02:48;;;;;;;;;;;;;;;21.95;58.32;101410.38;4985730;28;1915;-44
2021/09/26 00:05:15;;;;;;;;;;;;;;;21.98;58.30;101425.38;4985312;28;1875;-44
2021/09/26 00:07:42;;;;;;;;;;;;;;;21.98;57.56;101417.31;4994773;28;2065;-44
2021/09/26 00:10:09;;;;;;;;;;;;;;;21.96;57.67;101427.38;4986713;28;1512;-43
2021/09/26 00:12:36;;;;;;;;;;;;;;;21.97;57.57;101437.16;4985464;28;1655;-46
2021/09/26 00:15:03;;;;;;;;;;;;;;;21.98;57.70;101433.47;4985712;28;1180;-43
2021/09/26 00:17:30;;;;;;;;;;;;;;;21.94;58.02;101429.34;4993620;28;1929;-43
2021/09/26 00:19:58;;;;;;;;;;;;;;;21.97;58.14;101431.78;4984941;28;1661;-43
2021/09/26 00:22:24;;;;;;;;;;;;;;;21.92;58.05;101434.03;4987018;28;1910;-44
2021/09/26 00:24:51;;;;;;;;;;;;;;;21.92;58.06;101418.72;4986103;28;1043;-43
2021/09/26 00:27:17;;;;;;;;;;;;;;;21.95;58.40;101428.38;4985197;28;1837;-43
2021/09/26 00:29:44;;;;;;;;;;;;;;;21.95;57.81;101434.59;4984953;28;1922;-44
2021/09/26 00:32:11;;;;;;;;;;;;;;;21.95;57.80;101428.38;4986660;28;2551;-43
2021/09/26 00:34:38;;;;;;;;;;;;;;;21.96;57.69;101430.91;4986994;28;2279;-43
2021/09/26 00:37:06;;;;;;;;;;;;;;;21.94;58.08;101419.44;4993275;28;1531;-44
2021/09/26 00:39:32;;;;;;;;;;;;;;;21.96;58.43;101427.38;4984566;28;1904;-44
2021/09/26 00:41:59;;;;;;;;;;;;;;;21.92;58.16;101415.19;4985049;28;2331;-44
2021/09/26 00:44:25;;;;;;;;;;;;;;;21.93;58.18;101428.50;4986888;28;1975;-43
2021/09/26 00:46:52;;;;;;;;;;;;;;;21.91;58.36;101426.97;4986699;28;1528;-43
2021/09/26 00:49:20;;;;;;;;;;;;;;;21.91;58.38;101422.41;4986815;28;1961;-43
2021/09/26 00:51:46;;;;;;;;;;;;;;;21.90;57.89;101425.25;4990515;28;1073;-44
2021/09/26 00:54:14;;;;;;;;;;;;;;;21.89;58.29;101421.69;4985818;28;1716;-43
2021/09/26 00:56:42;;;;;;;;;;;;;;;21.91;58.65;101432.34;4985905;28;1647;-43
2021/09/26 00:59:08;;;;;;;;;;;;;;;21.87;58.38;101409.38;4986577;28;1742;-44
2021/09/26 01:01:35;;;;;;;;;;;;;;;21.84;58.55;101422.13;4985851;28;2285;-44
2021/09/26 01:04:02;;;;;;;;;;;;;;;21.88;58.15;101427.22;4986397;28;1668;-44
2021/09/26 01:06:37;;;;;;;;;;;;;;;21.89;58.27;101432.47;4987138;28;1007;-44
2021/09/26 01:09:05;;;;;;;;;;;;;;;21.87;58.35;101409.38;4986892;28;1655;-43
2021/09/26 01:11:41;;;;;;;;;;;;;;;21.89;57.96;101418.16;4986387;28;1629;-43
2021/09/26 01:14:10;;;;;;;;;;;;;;;21.85;58.29;101410.34;4986271;28;1839;-43
2021/09/26 01:16:39;;;;;;;;;;;;;;;21.82;57.84;101413.31;4991324;28;1979;-45
2021/09/26 01:19:19;;;;;;;;;;;;;;;21.87;58.42;101420.16;4984517;28;1000;-44
2021/09/26 01:21:49;;;;;;;;;;;;;;;21.90;58.26;101419.84;4985071;28;1985;-43
2021/09/26 01:24:33;;;;;;;;;;;;;;;21.84;58.39;101415.88;4985181;28;1691;-43
2021/09/26 01:27:15;;;;;;;;;;;;;;;21.88;57.96;101417.28;4981238;28;1761;-43
2021/09/26 01:29:59;;;;;;;;;;;;;;;21.87;58.04;101421.00;4981263;28;1872;-43
2021/09/26 01:32:28;;;;;;;;;;;;;;;21.85;58.08;101423.81;4976207;28;2378;-44
2021/09/26 01:34:56;;;;;;;;;;;;;;;21.85;58.48;101417.59;4984936;28;1692;-43
2021/09/26 01:37:26;;;;;;;;;;;;;;;21.86;57.55;101430.03;4994080;28;1759;-44
2021/09/26 01:39:56;;;;;;;;;;;;;;;21.84;58.40;101424.81;4986420;28;1143;-43
2021/09/26 01:42:25;;;;;;;;;;;;;;;21.88;58.07;101435.28;4981014;28;1979;-43
2021/09/26 01:44:53;;;;;;;;;;;;;;;21.89;57.73;101431.63;4985458;28;1563;-44
2021/09/26 01:47:21;;;;;;;;;;;;;;;21.89;57.93;101428.94;4985185;28;1668;-43
2021/09/26 01:49:51;;;;;;;;;;;;;;;21.83;57.88;101430.34;4983762;28;1625;-43
2021/09/26 01:52:20;;;;;;;;;;;;;;;21.81;57.61;101426.94;4986111;28;1701;-44
2021/09/26 01:54:47;;;;;;;;;;;;;;;21.87;58.19;101430.91;4983909;28;1196;-43
2021/09/26 01:57:15;;;;;;;;;;;;;;;21.83;58.28;101424.94;4983506;28;1986;-43
2021/09/26 01:59:41;;;;;;;;;;;;;;;21.81;58.04;101417.00;4983300;28;1810;-43
2021/09/26 14:02:45;;;;;;;;;;;;;;;22.53;57.67;101217.38;4991830;28;1902;-41
2021/09/26 14:05:11;;;;;;;;;;;;;;;22.55;57.76;101223.44;5004135;28;1647;-41
2021/09/26 14:07:38;;;;;;;;;;;;;;;22.57;57.81;101216.91;5008659;28;1625;-41
2021/09/26 14:10:05;;;;;;;;;;;;;;;22.51;57.98;101192.41;5003039;28;1621;-43
2021/09/26 14:12:32;;;;;;;;;;;;;;;22.51;57.80;101203.19;5003289;28;1166;-41
2021/09/26 14:14:58;;;;;;;;;;;;;;;22.52;58.00;101196.78;5001262;28;1751;-41
2021/09/26 14:17:25;;;;;;;;;;;;;;;22.51;57.47;101211.28;5010057;28;1764;-41
2021/09/26 14:19:53;;;;;;;;;;;;;;;22.55;57.78;101208.13;5001892;28;2451;-41
2021/09/26 14:22:19;;;;;;;;;;;;;;;22.51;57.89;101193.25;5004669;28;1910;-41
2021/09/26 14:24:46;;;;;;;;;;;;;;;22.50;57.76;101186.16;5002369;28;1116;-42
2021/09/26 14:27:12;;;;;;;;;;;;;;;22.54;57.85;101200.19;5001791;28;1933;-41
2021/09/26 14:29:39;;;;;;;;;;;;;;;22.54;57.82;101198.34;5002237;28;1759;-42
2021/09/26 14:32:06;;;;;;;;;;;;;;;22.51;57.97;101195.94;5003645;28;2621;-41
2021/09/26 14:34:33;;;;;;;;;;;;;;;22.50;57.94;101196.94;5003194;28;1827;-41
2021/09/26 14:37:01;;;;;;;;;;;;;;;22.51;57.75;101187.84;5010356;28;1008;-41
2021/09/26 14:39:27;;;;;;;;;;;;;;;22.50;57.87;101186.16;5001627;28;1576;-41
2021/09/26 14:41:55;;;;;;;;;;;;;;;22.49;57.61;101176.38;5002451;28;1781;-41
2021/09/26 14:44:22;;;;;;;;;;;;;;;22.50;57.79;101175.41;4998818;28;1902;-42
2021/09/26 14:46:49;;;;;;;;;;;;;;;22.52;58.23;101178.78;5001639;28;1488;-42
2021/09/26 14:49:15;;;;;;;;;;;;;;;22.52;57.98;101176.09;5003277;28;1563;-41
2021/09/26 14:51:42;;;;;;;;;;;;;;;22.54;57.78;101186.69;5007753;28;994;-41
2021/09/26 14:54:12;;;;;;;;;;;;;;;22.49;57.98;101178.22;5003009;28;2254;-41
2021/09/26 14:56:39;;;;;;;;;;;;;;;22.53;58.04;101185.03;5003326;28;1685;-41
2021/09/26 14:59:06;;;;;;;;;;;;;;;22.48;57.67;101177.34;5002936;28;1770;-41
2021/09/26 15:01:32;;;;;;;;;;;;;;;22.51;57.58;101170.84;5003107;28;1518;-42
2021/09/26 15:03:59;;;;;;;;;;;;;;;22.49;57.83;101162.06;5002584;28;1979;-41
2021/09/26 15:06:26;;;;;;;;;;;;;;;22.49;57.65;101173.69;4996750;28;1050;-41
2021/09/26 15:08:53;;;;;;;;;;;;;;;22.52;57.92;101168.00;5005379;28;2054;-41
2021/09/26 15:11:21;;;;;;;;;;;;;;;22.53;57.67;101158.91;5003485;28;1575;-42
2021/09/26 15:13:47;;;;;;;;;;;;;;;22.51;57.67;101166.28;5003136;28;1896;-41
2021/09/26 15:16:14;;;;;;;;;;;;;;;22.49;57.98;101162.91;5006605;28;1088;-41
2021/09/26 15:18:40;;;;;;;;;;;;;;;22.48;57.65;101153.09;5001789;28;2089;-41
2021/09/26 15:21:07;;;;;;;;;;;;;;;22.48;57.91;101166.56;5003136;28;1605;-41
2021/09/26 15:23:34;;;;;;;;;;;;;;;22.48;57.90;101160.34;5005456;28;1910;-41
2021/09/26 15:26:00;;;;;;;;;;;;;;;22.47;57.83;101148.72;5005296;28;1565;-41
2021/09/26 15:28:31;;;;;;;;;;;;;;;22.47;57.84;101151.41;4996682;28;1704;-41
2021/09/26 15:30:58;;;;;;;;;;;;;;;22.48;58.15;101154.97;5004772;28;2563;-43
2021/09/26 15:33:24;;;;;;;;;;;;;;;22.51;58.14;101144.72;5005392;28;1779;-41
2021/09/26 15:35:51;;;;;;;;;;;;;;;22.48;57.94;101161.19;5008685;28;992;-41
2021/09/26 15:38:17;;;;;;;;;;;;;;;22.46;57.69;101138.94;5013365;28;1927;-41
2021/09/26 15:40:46;;;;;;;;;;;;;;;22.45;58.09;101156.13;5004376;28;1493;-41
2021/09/26 15:43:13;;;;;;;;;;;;;;;22.48;58.14;101155.78;5004009;28;1910;-41
2021/09/26 15:45:43;;;;;;;;;;;;;;;22.51;57.80;101154.66;5006105;28;1829;-41
2021/09/26 15:48:10;;;;;;;;;;;;;;;22.48;58.12;101147.72;5006216;28;1577;-41
2021/09/26 15:50:37;;;;;;;;;;;;;;;22.51;58.06;101160.91;5006113;28;1166;-41
2021/09/26 15:53:04;;;;;;;;;;;;;;;22.50;57.85;101164.63;5013385;28;2002;-42
2021/09/26 15:55:30;;;;;;;;;;;;;;;22.48;58.02;101161.19;5007053;28;1994;-41
2021/09/26 15:57:58;;;;;;;;;;;;;;;22.47;58.21;101159.50;5005494;28;1011;-41
2021/09/26 16:00:25;;;;;;;;;;;;;;;22.46;57.93;101168.56;5004617;28;2099;-41
2021/09/26 16:02:53;;;;;;;;;;;;;;;22.48;57.83;101163.88;5004210;28;1911;-41
2021/09/26 16:05:20;;;;;;;;;;;;;;;22.45;57.78;101166.88;5006210;28;1815;-41
2021/09/26 16:07:47;;;;;;;;;;;;;;;22.43;57.76;101158.09;5015259;28;1091;-41
2021/09/26 16:10:14;;;;;;;;;;;;;;;22.43;57.68;101153.56;5002842;28;1858;-41
2021/09/26 16:12:40;;;;;;;;;;;;;;;22.46;58.07;101159.66;5013591;28;1871;-41
2021/09/26 16:15:08;;;;;;;;;;;;;;;22.49;57.98;101171.00;5006973;28;1083;-42
2021/09/26 16:17:34;;;;;;;;;;;;;;;22.44;57.76;101167.88;5012996;28;1911;-41
2021/09/26 16:20:03;;;;;;;;;;;;;;;22.46;57.83;101156.94;5004142;28;2001;-41
2021/09/26 16:22:29;;;;;;;;;;;;;;;22.47;58.06;101172.97;5006269;28;1914;-42
2021/09/26 16:24:56;;;;;;;;;;;;;;;22.47;57.97;101169.44;5004910;28;1630;-43
2021/09/26 16:27:23;;;;;;;;;;;;;;;22.46;57.80;101162.34;5004790;28;1060;-41
2021/09/26 16:29:50;;;;;;;;;;;;;;;22.44;57.38;101173.25;5003493;28;1819;-41
2021/09/26 16:32:17;;;;;;;;;;;;;;;22.45;57.97;101177.66;5004681;28;2058;-41
2021/09/26 16:34:43;;;;;;;;;;;;;;;22.45;58.03;101183.06;5005862;28;1555;-41
2021/09/26 16:37:11;;;;;;;;;;;;;;;22.47;58.04;101186.47;5013220;28;1095;-41
2021/09/26 16:39:38;;;;;;;;;;;;;;;22.46;57.97;101182.06;5003473;28;1758;-41
2021/09/26 16:42:04;;;;;;;;;;;;;;;22.43;58.37;101174.28;5003805;28;2060;-41
2021/09/26 16:44:31;;;;;;;;;;;;;;;22.42;57.90;101183.34;4996867;28;2048;-41
2021/09/26 16:46:58;;;;;;;;;;;;;;;22.41;57.71;101182.50;5005714;28;1808;-42
2021/09/26 16:49:24;;;;;;;;;;;;;;;22.45;57.98;101196.53;5005714;28;1957;-41
2021/09/26 16:51:50;;;;;;;;;;;;;;;22.43;58.16;101185.06;5010964;28;1004;-41
2021/09/26 16:54:19;;;;;;;;;;;;;;;22.46;57.93;101194.69;5004369;28;1817;-41
2021/09/26 16:56:46;;;;;;;;;;;;;;;22.40;58.13;101188.03;5005089;28;1623;-41
2021/09/26 16:59:12;;;;;;;;;;;;;;;22.44;57.96;101198.38;5005298;28;1787;-41
2021/09/26 17:01:40;;;;;;;;;;;;;;;22.43;57.92;101190.44;5005431;28;1830;-42
2021/09/26 17:04:07;;;;;;;;;;;;;;;22.44;57.81;101198.38;5005287;28;1982;-41
2021/09/26 17:06:34;;;;;;;;;;;;;;;22.42;57.81;101199.50;5007985;28;1075;-41
2021/09/26 17:09:01;;;;;;;;;;;;;;;22.41;58.03;101201.38;5006464;28;1938;-41
2021/09/26 17:11:29;;;;;;;;;;;;;;;22.39;57.94;101195.28;5005609;28;1823;-41
2021/09/26 17:13:56;;;;;;;;;;;;;;;22.44;58.15;101206.47;5005181;28;1469;-41
2021/09/26 17:16:24;;;;;;;;;;;;;;;22.40;57.96;101190.72;5009084;28;1091;-41
2021/09/26 17:18:51;;;;;;;;;;;;;;;22.39;57.96;101194.44;5002422;28;1751;-42
2021/09/26 17:21:18;;;;;;;;;;;;;;;22.41;58.04;101193.28;5004041;28;2055;-41
2021/09/26 17:23:44;;;;;;;;;;;;;;;22.43;58.25;101190.44;5007105;28;1910;-41
2021/09/26 17:26:11;;;;;;;;;;;;;;;22.40;58.13;101196.13;5004424;28;1596;-41
2021/09/26 17:28:39;;;;;;;;;;;;;;;22.41;58.16;101208.59;5004337;28;1624;-41
2021/09/26 17:31:06;;;;;;;;;;;;;;;22.44;58.04;101208.28;5002942;28;1613;-41
2021/09/26 17:33:34;;;;;;;;;;;;;;;22.40;58.29;101201.50;5002011;28;1741;-42
2021/09/26 17:36:02;;;;;;;;;;;;;;;22.40;58.03;101212.28;5005974;28;1067;-41
2021/09/26 17:38:29;;;;;;;;;;;;;;;22.39;58.16;101219.53;5010419;28;2131;-41
2021/09/26 17:40:55;;;;;;;;;;;;;;;22.41;58.38;101219.38;5003574;28;1816;-40
2021/09/26 17:43:22;;;;;;;;;;;;;;;22.39;58.09;101210.59;5002210;28;1906;-41
2021/09/26 17:45:51;;;;;;;;;;;;;;;22.40;58.22;101212.28;5002273;28;1671;-41
2021/09/26 17:48:18;;;;;;;;;;;;;;;22.38;58.42;101209.75;5002865;28;1505;-41
2021/09/26 17:50:45;;;;;;;;;;;;;;;22.38;58.20;101211.59;5005069;28;1084;-41
2021/09/26 17:53:12;;;;;;;;;;;;;;;22.40;58.05;101220.38;5010927;28;1747;-41
2021/09/26 17:55:38;;;;;;;;;;;;;;;22.40;58.12;101204.19;4995588;28;1828;-41
2021/09/26 17:58:05;;;;;;;;;;;;;;;22.39;58.13;101207.91;5003661;28;1095;-41
2021/09/26 18:00:34;;;;;;;;;;;;;;;22.38;57.97;101212.44;5002304;28;1767;-41
2021/09/26 18:03:02;;;;;;;;;;;;;;;22.41;58.16;101216.69;5001668;28;1907;-41
2021/09/26 18:05:29;;;;;;;;;;;;;;;22.36;57.97;101216.28;5003052;28;2172;-41
2021/09/26 18:07:56;;;;;;;;;;;;;;;22.39;58.20;101214.13;5010196;28;1798;-41
2021/09/26 18:10:24;;;;;;;;;;;;;;;22.37;58.52;101215.28;5003913;28;1675;-41
2021/09/26 18:12:51;;;;;;;;;;;;;;;22.39;58.19;101224.91;5003757;28;1485;-41
2021/09/26 18:15:19;;;;;;;;;;;;;;;22.37;58.07;101223.38;5003782;28;1099;-41
2021/09/26 18:17:45;;;;;;;;;;;;;;;;;;5009796;28;1771;-41
2021/09/26 18:20:14;;;;;;;;;;;;;;;22.39;58.01;101216.00;5001994;28;1670;-41
2021/09/26 18:22:41;;;;;;;;;;;;;;;22.38;58.14;101208.88;5002940;28;1667;-41
2021/09/26 18:25:09;;;;;;;;;;;;;;;22.35;58.30;101203.81;5003403;28;1910;-42
2021/09/26 18:27:35;;;;;;;;;;;;;;;22.35;58.22;101210.03;5003223;28;1178;-41
2021/09/26 18:30:03;;;;;;;;;;;;;;;22.39;58.30;101214.13;5001985;28;1936;-41
2021/09/26 18:32:29;;;;;;;;;;;;;;;22.33;58.06;101205.81;5001492;28;1703;-41
2021/09/26 18:34:56;;;;;;;;;;;;;;;22.33;57.90;101213.88;5002624;28;1916;-41
2021/09/26 18:37:24;;;;;;;;;;;;;;;22.34;58.24;101218.25;5012370;28;1917;-42
2021/09/26 18:39:50;;;;;;;;;;;;;;;;;;5005604;28;996;-41
2021/09/26 18:42:16;;;;;;;;;;;;;;;22.34;58.24;101216.44;5000654;28;1860;-41
2021/09/26 18:44:43;;;;;;;;;;;;;;;22.34;58.12;101215.56;5001353;28;2118;-42
2021/09/26 18:47:10;;;;;;;;;;;;;;;22.35;58.16;101217.28;5003286;28;2062;-41
2021/09/26 18:49:37;;;;;;;;;;;;;;;22.34;58.11;101223.66;5003396;28;1633;-41
2021/09/26 18:52:06;;;;;;;;;;;;;;;22.32;58.39;101214.88;5010339;28;1080;-42
2021/09/26 18:54:33;;;;;;;;;;;;;;;22.37;58.28;101231.47;5000703;28;1841;-41
2021/09/26 18:57:00;;;;;;;;;;;;;;;22.32;58.25;101217.56;5002055;28;1961;-41
2021/09/26 18:59:26;;;;;;;;;;;;;;;22.32;58.29;101220.25;5003322;28;1933;-41
2021/09/26 19:01:53;;;;;;;;;;;;;;;22.31;58.19;101211.34;5002760;28;1572;-41
2021/09/26 19:04:20;;;;;;;;;;;;;;;22.35;58.20;101217.28;5002759;28;1902;-41
2021/09/26 19:06:46;;;;;;;;;;;;;;;22.34;58.16;101215.56;5008003;28;1002;-41
2021/09/26 19:09:13;;;;;;;;;;;;;;;22.31;57.99;101216.72;5002566;28;1726;-41
2021/09/26 19:11:41;;;;;;;;;;;;;;;22.35;58.24;101219.97;5003342;28;2249;-41
2021/09/26 19:14:07;;;;;;;;;;;;;;;22.34;58.29;101219.13;5002916;28;1625;-41
2021/09/26 19:16:34;;;;;;;;;;;;;;;22.33;58.15;101214.72;5008951;28;1225;-42
2021/09/26 19:19:00;;;;;;;;;;;;;;;22.31;58.32;101219.41;5000974;28;1871;-41
2021/09/26 19:21:27;;;;;;;;;;;;;;;22.33;58.15;101221.97;5001259;28;1921;-42
2021/09/26 19:23:54;;;;;;;;;;;;;;;22.34;58.25;101215.56;5005275;28;2026;-42
2021/09/26 19:26:21;;;;;;;;;;;;;;;22.31;58.42;101224.81;5002863;28;1607;-42
2021/09/26 19:28:50;;;;;;;;;;;;;;;22.36;58.43;101210.88;5003087;28;1637;-41
2021/09/26 19:31:18;;;;;;;;;;;;;;;22.29;58.24;101218.72;5002403;28;1668;-41
2021/09/26 19:33:45;;;;;;;;;;;;;;;22.34;58.30;101234.44;4992433;28;1828;-41
2021/09/26 19:36:11;;;;;;;;;;;;;;;22.33;58.10;101225.50;5004666;28;1107;-41
2021/09/26 19:38:38;;;;;;;;;;;;;;;22.30;58.06;101211.47;5007345;28;1972;-41
2021/09/26 19:41:08;;;;;;;;;;;;;;;22.31;58.26;101219.41;5002686;28;1821;-41
2021/09/26 19:43:35;;;;;;;;;;;;;;;22.32;58.41;101220.25;5001680;28;1910;-41
2021/09/26 19:46:03;;;;;;;;;;;;;;;22.32;58.21;101223.81;5000449;28;1715;-41
2021/09/26 19:48:29;;;;;;;;;;;;;;;22.31;58.40;101218.56;5000905;28;1500;-43
2021/09/26 19:50:56;;;;;;;;;;;;;;;22.31;58.00;101238.28;5004542;28;1099;-41
2021/09/26 19:53:23;;;;;;;;;;;;;;;22.35;58.22;101233.44;5008975;28;1572;-41
2021/09/26 19:55:50;;;;;;;;;;;;;;;22.29;58.13;101220.56;5001590;28;1811;-41
2021/09/26 19:58:17;;;;;;;;;;;;;;;22.30;58.31;101217.69;5000641;28;1958;-41
2021/09/26 20:00:43;;;;;;;;;;;;;;;22.29;58.08;101228.66;5001628;28;1669;-41
2021/09/26 20:03:11;;;;;;;;;;;;;;;22.30;58.33;101233.03;5002480;28;1985;-41
2021/09/26 20:05:37;;;;;;;;;;;;;;;22.33;58.12;101232.75;5002078;28;1977;-41
2021/09/26 20:08:05;;;;;;;;;;;;;;;22.32;58.14;101237.28;5009384;28;1790;-41
2021/09/26 20:10:32;;;;;;;;;;;;;;;22.31;58.33;101213.19;5000762;28;1658;-42
2021/09/26 20:12:59;;;;;;;;;;;;;;;22.33;58.27;101248.91;5005314;28;1808;-42
2021/09/26 20:15:27;;;;;;;;;;;;;;;22.30;58.40;101228.47;5006807;28;1190;-41
2021/09/26 20:17:54;;;;;;;;;;;;;;;22.31;57.96;101218.56;5011350;28;1719;-41
2021/09/26 20:20:22;;;;;;;;;;;;;;;22.30;58.06;101230.34;5005495;28;1609;-41
2021/09/26 20:22:49;;;;;;;;;;;;;;;22.33;58.24;101235.44;4995580;28;2068;-41
2021/09/26 20:25:17;;;;;;;;;;;;;;;22.32;58.28;101225.66;5001458;28;1902;-41
2021/09/26 20:27:44;;;;;;;;;;;;;;;22.29;58.18;101232.19;5005084;28;1519;-42
2021/09/26 20:30:12;;;;;;;;;;;;;;;22.32;58.18;101241.81;5006390;28;955;-42
2021/09/26 20:32:39;;;;;;;;;;;;;;;22.30;57.95;101238.41;5003323;28;1833;-41
2021/09/26 20:35:07;;;;;;;;;;;;;;;22.28;58.35;101235.00;5010122;28;1697;-41
2021/09/26 20:37:35;;;;;;;;;;;;;;;22.29;57.96;101237.56;5010511;28;1089;-41
2021/09/26 20:40:02;;;;;;;;;;;;;;;22.29;58.03;101234.03;5005604;28;1512;-41
2021/09/26 20:42:28;;;;;;;;;;;;;;;22.30;58.16;101241.94;5005440;28;1749;-42
2021/09/26 20:44:55;;;;;;;;;;;;;;;22.31;58.13;101240.13;5005443;28;1974;-41
2021/09/26 20:47:21;;;;;;;;;;;;;;;22.27;58.21;101252.19;5005605;28;1638;-42
2021/09/26 20:49:47;;;;;;;;;;;;;;;22.28;58.25;101243.09;5003775;28;1660;-42
2021/09/26 20:52:14;;;;;;;;;;;;;;;22.34;58.04;101256.00;5007485;28;1003;-40
2021/09/26 20:54:42;;;;;;;;;;;;;;;22.28;58.20;101246.63;5003260;28;1836;-42
2021/09/26 20:57:08;;;;;;;;;;;;;;;22.29;58.16;101258.28;5003377;28;1743;-42
2021/09/26 20:59:35;;;;;;;;;;;;;;;22.27;58.18;101249.50;5004796;28;2104;-41
2021/09/26 21:02:01;;;;;;;;;;;;;;;22.28;58.03;101257.41;5004860;28;1609;-41
2021/09/26 21:04:28;;;;;;;;;;;;;;;22.27;58.18;101254.88;5005225;28;1977;-41
2021/09/26 21:06:54;;;;;;;;;;;;;;;22.28;58.23;101251.19;5010633;28;1103;-41
2021/09/26 21:09:21;;;;;;;;;;;;;;;22.29;58.32;101260.97;5003396;28;1686;-41
2021/09/26 21:11:48;;;;;;;;;;;;;;;22.28;58.08;101256.56;5005112;28;1788;-42
2021/09/26 21:14:15;;;;;;;;;;;;;;;22.27;58.16;101266.50;5004697;28;1617;-41
2021/09/26 21:16:42;;;;;;;;;;;;;;;22.24;58.17;101251.50;5010494;28;2029;-42
2021/09/26 21:19:08;;;;;;;;;;;;;;;22.27;58.28;101253.03;5003586;28;1133;-41
2021/09/26 21:21:36;;;;;;;;;;;;;;;22.30;58.29;101257.28;5002361;28;1649;-41
2021/09/26 21:24:03;;;;;;;;;;;;;;;22.27;58.08;101254.88;5004829;28;1641;-41
2021/09/26 21:26:30;;;;;;;;;;;;;;;22.25;57.94;101241.56;5004426;28;1528;-41
2021/09/26 21:28:57;;;;;;;;;;;;;;;22.26;58.31;101253.16;5005117;28;1546;-42
2021/09/26 21:31:24;;;;;;;;;;;;;;;22.30;58.27;101258.13;5004186;28;1696;-41
2021/09/26 21:33:51;;;;;;;;;;;;;;;22.26;58.12;101253.16;5003136;28;1593;-41
2021/09/26 21:36:17;;;;;;;;;;;;;;;22.26;58.51;101243.25;5006666;28;1077;-41
2021/09/26 21:38:44;;;;;;;;;;;;;;;22.29;58.24;101258.28;5008293;28;1824;-41
2021/09/26 21:41:11;;;;;;;;;;;;;;;22.26;57.91;101242.41;5004311;28;1690;-41
2021/09/26 21:43:38;;;;;;;;;;;;;;;22.27;58.33;101254.88;5003650;28;1993;-41
2021/09/26 21:46:05;;;;;;;;;;;;;;;22.24;58.18;101247.91;5002443;28;1985;-41
2021/09/26 21:48:32;;;;;;;;;;;;;;;22.23;58.42;101248.91;5002329;28;2036;-41
2021/09/26 21:51:00;;;;;;;;;;;;;;;22.29;58.09;101252.91;5006360;28;1027;-41
2021/09/26 21:53:27;;;;;;;;;;;;;;;22.24;58.10;101246.09;5009822;28;2729;-41
2021/09/26 21:55:53;;;;;;;;;;;;;;;22.23;58.08;101255.13;5002429;28;1680;-41
2021/09/26 21:58:20;;;;;;;;;;;;;;;22.28;58.16;101249.31;5002136;28;1663;-41
2021/09/26 22:00:48;;;;;;;;;;;;;;;22.23;58.11;101241.66;5002226;28;1638;-41
2021/09/26 22:03:17;;;;;;;;;;;;;;;22.26;58.43;101242.41;4999743;28;1808;-42
2021/09/26 22:05:43;;;;;;;;;;;;;;;22.24;58.35;101254.19;5004206;28;1910;-41
2021/09/26 22:08:10;;;;;;;;;;;;;;;22.21;58.19;101250.88;5010633;28;1850;-41
2021/09/26 22:10:38;;;;;;;;;;;;;;;22.21;58.33;101245.50;5001607;28;1733;-41
2021/09/26 22:13:05;;;;;;;;;;;;;;;22.24;58.40;101251.50;5002396;28;1967;-42
2021/09/26 22:15:34;;;;;;;;;;;;;;;22.25;58.23;101260.41;5005527;28;1066;-41
2021/09/26 22:18:01;;;;;;;;;;;;;;;22.21;58.07;101259.81;5008139;28;2092;-41
2021/09/26 22:20:29;;;;;;;;;;;;;;;22.21;57.96;101254.44;5003635;28;1625;-41
2021/09/26 22:22:56;;;;;;;;;;;;;;;22.20;58.09;101249.19;5002653;28;1818;-41
2021/09/26 22:25:24;;;;;;;;;;;;;;;22.23;58.37;101249.75;5002428;28;1910;-41
2021/09/26 22:27:53;;;;;;;;;;;;;;;22.19;58.11;101258.28;5003623;28;1907;-42
2021/09/26 22:30:20;;;;;;;;;;;;;;;22.21;58.20;101229.34;5000512;28;1788;-43
2021/09/26 22:32:47;;;;;;;;;;;;;;;22.20;58.11;101250.06;5002507;28;2059;-41
2021/09/26 22:35:14;;;;;;;;;;;;;;;22.20;58.01;101250.06;5006264;28;1663;-41
2021/09/26 22:37:41;;;;;;;;;;;;;;;22.21;58.11;101249.03;5009133;28;1063;-41
2021/09/26 22:40:09;;;;;;;;;;;;;;;22.24;58.34;101245.22;5003086;28;1917;-41
2021/09/26 22:42:37;;;;;;;;;;;;;;;22.22;58.15;101247.19;5003508;28;1849;-41
2021/09/26 22:45:06;;;;;;;;;;;;;;;22.24;58.15;101253.31;5003964;28;1906;-41
2021/09/26 22:47:33;;;;;;;;;;;;;;;22.23;58.01;101249.75;5003125;28;1711;-41
2021/09/26 22:49:59;;;;;;;;;;;;;;;22.19;58.08;101248.34;5002850;28;1522;-42
2021/09/26 22:52:26;;;;;;;;;;;;;;;22.19;58.34;101244.81;5004198;28;1581;-42
2021/09/26 22:54:54;;;;;;;;;;;;;;;22.22;58.13;101253.44;5003141;28;1002;-42
2021/09/26 22:57:20;;;;;;;;;;;;;;;22.20;57.86;101241.09;5001458;28;2203;-41
2021/09/26 22:59:47;;;;;;;;;;;;;;;22.18;58.23;101252.03;5000919;28;1576;-42
2021/09/26 23:02:13;;;;;;;;;;;;;;;22.22;58.28;101253.44;5002624;28;1845;-41
2021/09/26 23:04:40;;;;;;;;;;;;;;;22.20;58.16;101247.34;5002861;28;1915;-41
2021/09/26 23:07:06;;;;;;;;;;;;;;;22.19;58.35;101253.72;5010341;28;1084;-41
2021/09/26 23:09:33;;;;;;;;;;;;;;;22.19;58.07;101244.81;5001154;28;1866;-41
2021/09/26 23:12:01;;;;;;;;;;;;;;;22.19;58.20;101247.50;5001991;28;2053;-41
2021/09/26 23:14:27;;;;;;;;;;;;;;;22.18;57.84;101240.38;5002906;28;1817;-42
2021/09/26 23:16:54;;;;;;;;;;;;;;;22.17;58.37;101236.00;5009642;28;1670;-41
2021/09/26 23:19:20;;;;;;;;;;;;;;;22.17;58.15;101236.00;5000135;28;1934;-42
2021/09/26 23:21:47;;;;;;;;;;;;;;;22.18;58.18;101235.00;5002466;28;1167;-41
2021/09/26 23:24:13;;;;;;;;;;;;;;;22.17;58.15;101241.41;5002783;28;2013;-42
2021/09/26 23:26:40;;;;;;;;;;;;;;;22.21;58.18;101246.34;5002807;28;1970;-41
2021/09/26 23:29:08;;;;;;;;;;;;;;;22.18;58.02;101241.25;5002943;28;1752;-42
2021/09/26 23:31:37;;;;;;;;;;;;;;;22.23;58.11;101238.97;5002780;28;1627;-41
2021/09/26 23:34:03;;;;;;;;;;;;;;;22.17;57.82;101233.31;5003074;28;1782;-41
2021/09/26 23:36:30;;;;;;;;;;;;;;;22.19;58.10;101232.16;5005307;28;1111;-41
2021/09/26 23:38:56;;;;;;;;;;;;;;;22.19;58.08;101242.09;5004850;28;1972;-41
2021/09/26 23:41:23;;;;;;;;;;;;;;;22.15;58.06;101233.47;5002664;28;1609;-42
2021/09/26 23:43:52;;;;;;;;;;;;;;;22.20;58.22;101236.56;5002924;28;1665;-42
2021/09/26 23:46:22;;;;;;;;;;;;;;;22.15;58.05;101241.53;5003358;28;1910;-41
2021/09/26 23:48:48;;;;;;;;;;;;;;;22.15;58.08;101233.47;4995765;28;1528;-41
2021/09/26 23:51:15;;;;;;;;;;;;;;;22.14;57.93;101229.06;5008848;28;1002;-41
2021/09/26 23:53:41;;;;;;;;;;;;;;;22.18;58.29;101230.50;5010249;28;1937;-40
2021/09/26 23:56:08;;;;;;;;;;;;;;;22.20;58.01;101235.72;5006056;28;1545;-41
2021/09/26 23:58:34;;;;;;;;;;;;;;;22.17;58.24;101236.84;5005981;28;1784;-42
